Time;durP1;ratioP1;P1;durP2;ratioP2;P2;SDS_P1;SDS_P2;PMS_P1;PMS_P2;Temp;Humidity;BMP_temperature;BMP_pressure;BME280_temperature;BME280_humidity;BME280_pressure;Samples;Min_cycle;Max_cycle;Signal;HPM_P1;HPM_P2
2021/08/05 00:00:01;;;;;;;1.42;1.32;;;16.60;99.90;;;;;;2034281;70;21419;-75
2021/08/05 00:02:27;;;;;;;3.15;1.62;;;16.60;99.90;;;;;;2034198;70;21583;-75
2021/08/05 00:04:53;;;;;;;1.52;1.30;;;16.50;99.90;;;;;;2034299;69;21560;-75
2021/08/05 00:07:20;;;;;;;1.57;1.22;;;16.50;99.90;;;;;;2033691;69;21552;-75
2021/08/05 00:09:46;;;;;;;2.20;1.30;;;16.50;99.90;;;;;;2034268;69;21015;-75
2021/08/05 00:12:12;;;;;;;1.42;1.20;;;16.40;99.90;;;;;;2034266;70;21042;-76
2021/08/05 00:14:38;;;;;;;1.30;1.20;;;16.30;99.90;;;;;;2034336;70;21179;-75
2021/08/05 00:17:04;;;;;;;1.75;1.10;;;16.30;99.90;;;;;;2034264;70;21136;-75
2021/08/05 00:19:30;;;;;;;2.77;1.50;;;16.30;99.90;;;;;;2034366;70;21117;-75
2021/08/05 00:21:56;;;;;;;2.50;1.32;;;16.30;99.90;;;;;;2034365;70;21019;-75
2021/08/05 00:24:22;;;;;;;1.35;1.25;;;16.20;99.90;;;;;;2034259;70;21156;-76
2021/08/05 00:26:49;;;;;;;7.85;1.60;;;16.20;99.90;;;;;;2034270;70;21120;-75
2021/08/05 00:29:15;;;;;;;7.75;1.52;;;16.20;99.90;;;;;;2034274;70;21054;-75
2021/08/05 00:31:41;;;;;;;1.40;1.30;;;16.10;99.90;;;;;;2034236;70;21011;-75
2021/08/05 00:34:07;;;;;;;1.50;1.40;;;16.10;99.90;;;;;;2034267;70;21054;-75
2021/08/05 00:36:33;;;;;;;1.32;1.20;;;16.10;99.90;;;;;;2034258;70;21050;-75
2021/08/05 00:38:59;;;;;;;4.08;1.45;;;16.10;99.90;;;;;;2034176;70;21095;-75
2021/08/05 00:41:25;;;;;;;1.30;1.20;;;16.10;99.90;;;;;;2034455;70;21039;-75
2021/08/05 00:43:51;;;;;;;1.70;1.52;;;16.00;99.90;;;;;;2034325;70;21646;-75
2021/08/05 00:46:18;;;;;;;2.70;1.40;;;16.00;99.90;;;;;;2034327;70;21482;-75
2021/08/05 00:48:44;;;;;;;2.65;1.40;;;16.00;99.90;;;;;;2034331;69;21471;-75
2021/08/05 00:51:10;;;;;;;1.30;1.20;;;16.00;99.90;;;;;;2034563;70;21423;-75
2021/08/05 00:53:38;;;;;;;2.05;1.20;;;16.10;99.90;;;;;;2034452;70;21465;-75
2021/08/05 00:56:04;;;;;;;4.62;1.45;;;16.10;99.90;;;;;;2034097;70;21133;-74
2021/08/05 00:58:30;;;;;;;1.52;1.27;;;16.00;99.90;;;;;;2034436;70;21132;-74
2021/08/05 01:00:56;;;;;;;5.03;1.75;;;16.00;99.90;;;;;;2034456;70;21015;-74
2021/08/05 01:03:22;;;;;;;2.77;1.50;;;16.00;99.90;;;;;;2034449;70;21127;-74
2021/08/05 01:05:48;;;;;;;7.28;1.70;;;16.00;99.90;;;;;;2034487;70;21107;-74
2021/08/05 01:08:14;;;;;;;2.15;1.87;;;15.90;99.90;;;;;;2034479;70;21055;-74
2021/08/05 01:10:40;;;;;;;1.98;1.45;;;15.90;99.90;;;;;;2034529;70;21551;-74
2021/08/05 01:13:07;;;;;;;1.55;1.45;;;15.90;99.90;;;;;;2034469;69;21478;-74
2021/08/05 01:15:33;;;;;;;3.15;1.40;;;15.90;99.90;;;;;;2034438;70;21439;-74
2021/08/05 01:17:59;;;;;;;2.50;1.30;;;15.90;99.90;;;;;;2034457;69;21457;-74
2021/08/05 01:20:25;;;;;;;9.73;1.80;;;15.90;99.90;;;;;;2034665;70;21460;-74
2021/08/05 01:22:51;;;;;;;1.70;1.60;;;16.00;99.90;;;;;;2034437;70;21511;-74
2021/08/05 01:25:17;;;;;;;1.80;1.40;;;15.90;99.90;;;;;;2034429;70;21047;-74
2021/08/05 01:27:43;;;;;;;1.45;1.35;;;15.90;99.90;;;;;;2034426;70;21124;-74
2021/08/05 01:30:10;;;;;;;1.52;1.40;;;15.90;99.90;;;;;;2034441;70;21235;-74
2021/08/05 01:32:36;;;;;;;5.25;1.72;;;15.90;99.90;;;;;;2034464;70;21051;-74
2021/08/05 01:35:02;;;;;;;2.75;1.20;;;15.80;99.90;;;;;;2037626;69;21087;-74
2021/08/05 01:37:28;;;;;;;1.45;1.35;;;15.80;99.90;;;;;;2037898;69;21074;-74
2021/08/05 01:39:55;;;;;;;1.95;1.45;;;15.80;99.90;;;;;;2035763;69;21039;-74
2021/08/05 01:42:21;;;;;;;3.72;1.60;;;15.80;99.90;;;;;;2034448;70;21502;-74
2021/08/05 01:44:49;;;;;;;1.87;1.77;;;15.70;99.90;;;;;;2034387;70;21015;-74
2021/08/05 01:47:15;;;;;;;1.72;1.62;;;15.70;99.90;;;;;;2016095;70;21091;-74
2021/08/05 01:49:41;;;;;;;1.65;1.55;;;15.70;99.90;;;;;;2018144;70;21205;-74
2021/08/05 01:52:07;;;;;;;1.72;1.47;;;15.70;99.90;;;;;;2034424;70;21119;-74
2021/08/05 01:54:33;;;;;;;1.65;1.40;;;15.70;99.90;;;;;;2034386;70;21048;-74
2021/08/05 01:57:00;;;;;;;35.85;2.35;;;15.60;99.90;;;;;;2034492;70;21124;-73
2021/08/05 01:59:26;;;;;;;1.77;1.67;;;15.60;99.90;;;;;;2034418;69;21050;-74
2021/08/05 02:01:52;;;;;;;3.15;1.47;;;15.60;99.90;;;;;;2034430;70;21135;-74
2021/08/05 02:04:18;;;;;;;2.35;1.80;;;15.50;99.90;;;;;;2034411;70;21051;-74
2021/08/05 02:06:44;;;;;;;1.70;1.60;;;15.50;99.90;;;;;;2034408;70;21047;-74
2021/08/05 02:09:10;;;;;;;3.90;1.60;;;15.50;99.90;;;;;;2026401;70;21063;-74
2021/08/05 02:11:36;;;;;;;1.42;1.32;;;15.50;99.90;;;;;;2034424;70;21050;-74
2021/08/05 02:14:02;;;;;;;2.17;1.62;;;15.50;99.90;;;;;;2034389;69;21060;-74
2021/08/05 02:16:29;;;;;;;2.92;1.92;;;15.50;99.90;;;;;;2034492;70;21097;-74
2021/08/05 02:18:55;;;;;;;6.78;1.70;;;15.40;99.90;;;;;;2034412;70;21023;-74
2021/08/05 02:21:21;;;;;;;2.47;1.45;;;15.50;99.90;;;;;;2034518;70;21490;-74
2021/08/05 02:23:47;;;;;;;2.00;1.55;;;15.50;99.90;;;;;;2034423;70;21376;-74
2021/08/05 02:26:13;;;;;;;2.22;1.50;;;15.50;99.90;;;;;;2034491;70;21495;-74
2021/08/05 02:28:39;;;;;;;1.62;1.30;;;15.50;99.90;;;;;;2034387;69;21478;-74
2021/08/05 02:31:07;;;;;;;2.45;1.62;;;15.50;99.90;;;;;;2034455;70;21524;-73
2021/08/05 02:33:33;;;;;;;1.65;1.55;;;15.50;99.90;;;;;;2034405;70;21019;-74
2021/08/05 02:35:59;;;;;;;1.80;1.70;;;15.50;99.90;;;;;;2034502;70;21054;-74
2021/08/05 02:38:25;;;;;;;1.60;1.50;;;15.50;99.90;;;;;;2034289;70;21149;-74
2021/08/05 02:40:52;;;;;;;1.70;1.60;;;15.40;99.90;;;;;;2034634;70;21090;-73
2021/08/05 02:43:18;;;;;;;1.92;1.82;;;15.50;99.90;;;;;;2034426;70;21399;-74
2021/08/05 02:45:44;;;;;;;4.53;1.67;;;15.40;99.90;;;;;;2034427;70;21439;-74
2021/08/05 02:48:10;;;;;;;2.05;1.77;;;15.50;99.90;;;;;;2034383;70;21461;-74
2021/08/05 02:50:36;;;;;;;2.67;1.72;;;15.40;99.90;;;;;;2034737;70;21478;-74
2021/08/05 02:53:02;;;;;;;3.67;2.20;;;15.40;99.90;;;;;;2034300;69;21513;-74
2021/08/05 02:55:28;;;;;;;3.80;1.70;;;15.40;99.90;;;;;;2034514;70;21502;-74
2021/08/05 02:57:54;;;;;;;2.25;1.85;;;15.30;99.90;;;;;;2034245;70;21079;-74
2021/08/05 03:00:21;;;;;;;2.22;1.60;;;15.20;99.90;;;;;;2034503;70;21039;-74
2021/08/05 03:02:47;;;;;;;3.02;2.12;;;15.20;99.90;;;;;;2034278;69;21060;-74
2021/08/05 03:05:13;;;;;;;1.62;1.52;;;15.10;99.90;;;;;;2034498;70;21030;-74
2021/08/05 03:07:39;;;;;;;1.85;1.70;;;15.10;99.90;;;;;;2034299;70;21110;-74
2021/08/05 03:10:05;;;;;;;2.92;1.70;;;15.00;99.90;;;;;;2034511;70;21035;-73
2021/08/05 03:12:31;;;;;;;2.00;1.77;;;15.10;99.90;;;;;;2034349;70;21008;-73
2021/08/05 03:14:57;;;;;;;2.95;2.00;;;15.00;99.90;;;;;;2034408;70;21035;-73
2021/08/05 03:17:23;;;;;;;5.70;2.10;;;15.00;99.90;;;;;;2034410;70;21050;-73
2021/08/05 03:19:50;;;;;;;6.17;2.60;;;15.10;99.90;;;;;;2034484;70;21075;-74
2021/08/05 03:22:16;;;;;;;3.95;2.55;;;15.10;99.90;;;;;;2017734;70;21031;-73
2021/08/05 03:24:42;;;;;;;3.30;2.12;;;15.10;99.90;;;;;;2034501;70;21046;-74
2021/08/05 03:27:08;;;;;;;3.25;2.37;;;15.10;99.90;;;;;;2034507;70;21050;-73
2021/08/05 03:29:34;;;;;;;4.08;2.60;;;15.20;99.90;;;;;;2034389;70;21019;-74
2021/08/05 03:32:00;;;;;;;2.37;2.17;;;15.30;99.90;;;;;;2034510;70;21016;-74
2021/08/05 03:34:26;;;;;;;3.67;1.80;;;15.30;99.90;;;;;;2034445;69;21134;-74
2021/08/05 03:36:52;;;;;;;2.25;2.05;;;15.40;99.90;;;;;;2034360;70;21043;-74
2021/08/05 03:39:18;;;;;;;3.67;1.98;;;15.50;99.90;;;;;;2033169;70;21190;-74
2021/08/05 03:41:45;;;;;;;5.10;1.77;;;15.40;99.90;;;;;;2034386;70;21050;-74
2021/08/05 03:44:11;;;;;;;2.22;1.85;;;15.40;99.90;;;;;;2012328;70;21055;-74
2021/08/05 03:46:37;;;;;;;5.28;1.90;;;15.40;99.90;;;;;;2023361;69;21151;-74
2021/08/05 03:49:03;;;;;;;10.38;2.27;;;15.40;99.90;;;;;;2014565;70;21059;-74
2021/08/05 03:51:29;;;;;;;8.80;2.35;;;15.50;99.90;;;;;;2033294;70;21090;-74
2021/08/05 03:53:55;;;;;;;2.52;1.98;;;15.40;99.90;;;;;;2034372;70;21054;-74
2021/08/05 03:56:21;;;;;;;3.95;2.40;;;15.50;99.90;;;;;;2034437;70;21542;-74
2021/08/05 03:58:47;;;;;;;3.85;3.22;;;15.50;99.90;;;;;;2034342;70;21427;-74
2021/08/05 04:01:14;;;;;;;3.40;2.80;;;15.30;99.90;;;;;;2034479;70;21552;-74
2021/08/05 04:03:40;;;;;;;3.33;2.08;;;15.30;99.90;;;;;;2034386;70;21477;-74
2021/08/05 04:06:07;;;;;;;2.98;2.05;;;15.40;99.90;;;;;;2034341;70;21478;-74
2021/08/05 04:08:33;;;;;;;2.77;2.55;;;15.40;99.90;;;;;;2034341;70;21078;-74
2021/08/05 04:11:00;;;;;;;7.55;2.72;;;15.40;99.90;;;;;;2034348;70;21043;-75
2021/08/05 04:13:26;;;;;;;3.55;2.15;;;15.40;99.90;;;;;;2034369;70;21042;-74
2021/08/05 04:15:52;;;;;;;3.42;1.98;;;15.40;99.90;;;;;;2034438;70;21059;-74
2021/08/05 04:18:18;;;;;;;4.03;2.40;;;15.40;99.90;;;;;;2034232;69;21091;-74
2021/08/05 04:20:44;;;;;;;6.62;2.50;;;15.40;99.90;;;;;;2034466;70;21046;-74
2021/08/05 04:23:10;;;;;;;2.47;2.27;;;15.40;99.90;;;;;;2034236;69;21073;-75
2021/08/05 04:25:36;;;;;;;4.87;2.33;;;15.40;99.90;;;;;;2034481;70;21466;-74
2021/08/05 04:28:02;;;;;;;2.95;2.47;;;15.40;99.90;;;;;;2034367;70;21395;-74
2021/08/05 04:30:29;;;;;;;4.10;2.55;;;15.40;99.90;;;;;;2034479;70;21543;-74
2021/08/05 04:32:55;;;;;;;4.12;2.40;;;15.40;99.90;;;;;;2034398;70;21582;-75
2021/08/05 04:35:21;;;;;;;2.20;2.00;;;15.40;99.90;;;;;;2034592;70;21470;-75
2021/08/05 04:37:47;;;;;;;2.62;2.10;;;15.50;99.90;;;;;;2034341;70;21455;-73
2021/08/05 04:40:13;;;;;;;5.15;2.17;;;15.50;99.90;;;;;;2034591;70;21450;-74
2021/08/05 04:42:39;;;;;;;2.45;2.25;;;15.70;99.90;;;;;;2034363;69;21163;-74
2021/08/05 04:45:05;;;;;;;2.50;2.30;;;15.70;99.90;;;;;;2034685;70;21039;-75
2021/08/05 04:47:31;;;;;;;4.17;2.98;;;15.70;99.90;;;;;;2034364;70;21016;-74
2021/08/05 04:49:57;;;;;;;5.45;2.65;;;15.80;99.90;;;;;;2034555;70;21046;-74
2021/08/05 04:52:24;;;;;;;5.42;2.87;;;15.80;99.90;;;;;;2034650;70;21046;-74
2021/08/05 04:54:50;;;;;;;5.30;3.05;;;15.90;99.90;;;;;;2034587;70;21050;-74
2021/08/05 04:57:16;;;;;;;8.60;2.45;;;16.00;99.90;;;;;;2034442;70;21136;-74
2021/08/05 04:59:43;;;;;;;2.52;2.33;;;16.10;99.90;;;;;;2034467;70;21012;-75
2021/08/05 05:02:09;;;;;;;5.22;2.70;;;16.10;99.90;;;;;;2034433;70;21151;-74
2021/08/05 05:04:35;;;;;;;4.95;2.98;;;16.20;99.90;;;;;;2034435;70;21055;-74
2021/08/05 05:07:01;;;;;;;2.85;2.55;;;16.30;99.90;;;;;;2034436;70;21136;-74
2021/08/05 05:09:27;;;;;;;4.30;2.67;;;16.30;99.90;;;;;;2034575;70;21396;-74
2021/08/05 05:11:53;;;;;;;4.08;3.00;;;16.30;99.90;;;;;;2034344;70;21549;-75
2021/08/05 05:14:19;;;;;;;3.42;3.08;;;16.30;99.90;;;;;;2034314;70;21571;-74
2021/08/05 05:16:45;;;;;;;4.47;3.25;;;16.40;99.90;;;;;;2034463;70;21556;-75
2021/08/05 05:19:12;;;;;;;6.12;3.65;;;16.40;99.90;;;;;;2034300;69;21530;-74
2021/08/05 05:21:38;;;;;;;5.70;4.00;;;16.50;99.90;;;;;;2034472;70;21511;-74
2021/08/05 05:24:04;;;;;;;4.62;3.10;;;16.50;99.90;;;;;;2034344;70;21048;-75
2021/08/05 05:26:30;;;;;;;6.12;2.80;;;16.60;99.90;;;;;;2034499;70;21047;-74
2021/08/05 05:28:56;;;;;;;3.52;2.75;;;16.70;99.90;;;;;;2034324;70;21013;-74
2021/08/05 05:31:22;;;;;;;6.03;2.20;;;16.80;99.90;;;;;;2023729;70;21058;-74
2021/08/05 05:33:48;;;;;;;6.72;2.83;;;16.80;99.90;;;;;;2034703;69;21120;-74
2021/08/05 05:36:15;;;;;;;2.75;2.55;;;16.80;99.90;;;;;;2026010;70;21051;-76
2021/08/05 05:38:41;;;;;;;10.35;2.80;;;16.70;99.90;;;;;;2021082;70;21055;-81
2021/08/05 05:41:07;;;;;;;3.15;2.72;;;16.70;99.90;;;;;;1995922;70;21024;-82
2021/08/05 05:43:33;;;;;;;5.17;3.15;;;16.40;99.90;;;;;;2034620;70;21148;-82
2021/08/05 05:46:00;;;;;;;2.80;2.42;;;16.50;99.90;;;;;;2034685;70;21175;-81
2021/08/05 05:48:28;;;;;;;5.92;3.02;;;16.50;99.90;;;;;;2034157;70;21144;-81
2021/08/05 05:50:54;;;;;;;4.80;2.58;;;16.60;99.90;;;;;;2034182;70;21439;-79
2021/08/05 05:53:22;;;;;;;10.88;2.52;;;16.80;99.90;;;;;;2034342;70;21498;-79
2021/08/05 05:55:48;;;;;;;8.95;2.52;;;17.00;99.90;;;;;;2034334;70;21153;-79
2021/08/05 05:58:14;;;;;;;5.75;2.65;;;17.30;99.90;;;;;;2034308;70;21556;-81
2021/08/05 06:00:40;;;;;;;5.37;2.58;;;17.10;99.90;;;;;;2034269;70;21570;-81
2021/08/05 06:03:06;;;;;;;3.30;2.30;;;17.30;99.90;;;;;;2034534;70;21428;-82
2021/08/05 06:05:32;;;;;;;9.50;2.60;;;17.60;99.90;;;;;;2034433;70;21024;-80
2021/08/05 06:07:59;;;;;;;4.22;2.00;;;17.70;99.90;;;;;;2034321;70;21054;-80
2021/08/05 06:10:25;;;;;;;2.77;1.98;;;17.80;99.90;;;;;;2034520;70;21099;-79
2021/08/05 06:12:51;;;;;;;7.45;2.72;;;17.90;99.90;;;;;;2034444;70;21062;-79
2021/08/05 06:15:17;;;;;;;3.92;1.82;;;17.90;99.90;;;;;;2034491;70;21051;-80
2021/08/05 06:17:45;;;;;;;3.20;2.00;;;18.00;99.90;;;;;;2034360;70;21027;-81
2021/08/05 06:20:11;;;;;;;7.47;2.62;;;17.90;99.90;;;;;;2034387;70;21501;-81
2021/08/05 06:22:39;;;;;;;7.62;2.72;;;17.90;99.90;;;;;;2034364;70;21581;-81
2021/08/05 06:25:06;;;;;;;6.03;2.27;;;17.90;99.90;;;;;;2034335;70;21083;-80
2021/08/05 06:27:32;;;;;;;6.22;2.65;;;17.80;99.90;;;;;;2034508;70;21108;-81
2021/08/05 06:29:59;;;;;;;6.33;1.87;;;17.80;99.90;;;;;;2034507;69;21050;-80
2021/08/05 06:32:25;;;;;;;3.98;2.08;;;17.90;99.90;;;;;;2034309;70;21580;-80
2021/08/05 06:34:51;;;;;;;3.85;2.35;;;17.80;99.90;;;;;;2034473;70;21412;-80
2021/08/05 06:37:17;;;;;;;2.55;2.17;;;17.80;99.90;;;;;;2034256;70;21527;-80
2021/08/05 06:39:43;;;;;;;6.70;2.60;;;17.90;99.90;;;;;;2034469;70;21584;-79
2021/08/05 06:42:09;;;;;;;4.70;2.52;;;18.00;99.90;;;;;;2034311;69;21145;-80
2021/08/05 06:44:36;;;;;;;6.62;3.02;;;18.20;99.90;;;;;;2034294;69;21118;-81
2021/08/05 06:47:02;;;;;;;2.65;2.40;;;18.30;99.90;;;;;;2034447;70;21031;-80
2021/08/05 06:49:28;;;;;;;4.05;2.20;;;18.00;99.90;;;;;;2034893;70;21055;-81
2021/08/05 06:51:54;;;;;;;2.25;1.90;;;18.10;99.90;;;;;;2038289;70;21089;-80
2021/08/05 06:54:20;;;;;;;5.67;2.08;;;18.40;99.90;;;;;;2038429;70;21113;-80
2021/08/05 06:56:46;;;;;;;7.40;2.58;;;19.10;99.90;;;;;;2035195;69;21097;-81
2021/08/05 06:59:13;;;;;;;4.28;2.20;;;19.30;99.90;;;;;;2034349;70;21132;-80
2021/08/05 07:01:39;;;;;;;2.75;1.92;;;19.20;99.90;;;;;;2034275;70;21164;-80
2021/08/05 07:04:05;;;;;;;6.50;2.22;;;19.50;99.90;;;;;;2034285;70;21047;-81
2021/08/05 07:06:31;;;;;;;10.00;2.00;;;20.10;99.90;;;;;;2034552;70;21128;-81
2021/08/05 07:08:58;;;;;;;2.20;1.50;;;21.00;99.90;;;;;;2034528;69;21023;-82
2021/08/05 07:11:24;;;;;;;4.12;2.02;;;21.00;99.90;;;;;;2034318;70;21087;-83
2021/08/05 07:13:51;;;;;;;4.62;1.72;;;21.70;99.90;;;;;;2034629;70;21122;-82
2021/08/05 07:16:17;;;;;;;3.50;1.40;;;21.50;99.90;;;;;;2034674;70;21050;-83
2021/08/05 07:18:43;;;;;;;5.95;1.90;;;21.00;99.90;;;;;;2034425;70;21056;-83
2021/08/05 07:21:10;;;;;;;3.70;1.47;;;20.40;99.90;;;;;;2034849;70;21166;-82
2021/08/05 07:23:36;;;;;;;2.75;1.85;;;20.30;99.90;;;;;;2034500;70;21068;-82
2021/08/05 07:26:02;;;;;;;14.75;1.62;;;20.40;99.90;;;;;;2034824;70;21226;-83
2021/08/05 07:28:28;;;;;;;6.72;2.00;;;20.00;99.90;;;;;;2034911;70;21051;-82
2021/08/05 07:30:54;;;;;;;6.00;1.85;;;19.80;99.90;;;;;;2035275;69;21083;-82
2021/08/05 07:33:20;;;;;;;4.15;2.02;;;19.50;99.90;;;;;;2034990;70;21163;-81
2021/08/05 07:35:46;;;;;;;3.55;1.85;;;19.50;99.90;;;;;;2034940;70;21071;-83
2021/08/05 07:38:13;;;;;;;5.10;2.12;;;19.80;99.90;;;;;;2034643;70;21120;-82
2021/08/05 07:40:39;;;;;;;1.90;1.57;;;20.00;99.90;;;;;;2034803;69;21470;-82
2021/08/05 07:43:05;;;;;;;3.00;1.92;;;20.20;99.90;;;;;;2034831;70;21485;-82
2021/08/05 07:45:32;;;;;;;4.90;1.85;;;20.10;99.90;;;;;;2035114;70;21507;-84
2021/08/05 07:47:58;;;;;;;2.15;1.82;;;20.50;99.90;;;;;;2035011;70;21055;-83
2021/08/05 07:50:24;;;;;;;1.90;1.72;;;20.20;99.90;;;;;;2035038;70;21035;-82
2021/08/05 07:52:50;;;;;;;3.17;1.82;;;19.90;99.90;;;;;;2035176;70;21065;-82
2021/08/05 07:55:16;;;;;;;4.40;2.10;;;19.70;99.90;;;;;;2035131;70;21176;-82
2021/08/05 07:57:43;;;;;;;2.00;1.90;;;19.70;99.90;;;;;;2018256;70;21051;-83
2021/08/05 08:00:09;;;;;;;2.45;1.85;;;20.20;99.90;;;;;;2017270;70;20980;-80
2021/08/05 08:02:35;;;;;;;7.72;1.80;;;20.60;99.90;;;;;;2035023;70;21071;-81
2021/08/05 08:05:01;;;;;;;4.47;2.27;;;20.10;99.90;;;;;;2034970;70;21043;-84
2021/08/05 08:07:27;;;;;;;18.42;1.92;;;20.10;99.90;;;;;;2035103;70;21071;-85
2021/08/05 08:09:53;;;;;;;2.77;1.75;;;20.50;99.90;;;;;;2034980;70;21008;-83
2021/08/05 08:12:19;;;;;;;1.70;1.60;;;20.80;99.90;;;;;;2034883;70;21039;-82
2021/08/05 08:14:45;;;;;;;2.50;1.80;;;21.00;99.90;;;;;;2034910;70;21145;-82
2021/08/05 08:17:11;;;;;;;4.12;1.47;;;21.50;99.90;;;;;;2034983;70;21054;-83
2021/08/05 08:19:38;;;;;;;1.37;1.32;;;21.40;99.90;;;;;;2034293;70;21087;-84
2021/08/05 08:22:06;;;;;;;2.75;1.57;;;21.10;99.90;;;;;;2035523;70;21061;-84
2021/08/05 08:24:32;;;;;;;2.08;1.62;;;21.30;99.90;;;;;;2034507;70;21499;-86
2021/08/05 08:26:58;;;;;;;1.92;1.70;;;21.10;99.90;;;;;;2035418;69;21475;-84
2021/08/05 08:29:24;;;;;;;2.47;1.40;;;20.60;99.90;;;;;;2034577;70;21084;-85
2021/08/05 08:31:50;;;;;;;2.72;1.52;;;20.60;99.90;;;;;;2035305;70;21611;-86
2021/08/05 08:34:16;;;;;;;2.60;1.60;;;20.60;99.90;;;;;;2035413;70;21166;-83
2021/08/05 08:36:43;;;;;;;2.35;1.60;;;20.70;99.90;;;;;;2035234;70;21048;-83
2021/08/05 08:39:10;;;;;;;5.17;1.40;;;20.80;99.90;;;;;;2035029;70;21095;-83
2021/08/05 08:41:38;;;;;;;2.60;1.35;;;20.80;99.90;;;;;;2035592;70;21182;-83
2021/08/05 08:44:04;;;;;;;2.67;1.57;;;21.00;99.90;;;;;;2035041;70;21064;-83
2021/08/05 08:46:30;;;;;;;1.45;1.35;;;21.20;99.90;;;;;;2035163;70;21067;-84
2021/08/05 08:48:56;;;;;;;6.17;1.80;;;21.30;99.90;;;;;;2035029;70;21039;-83
2021/08/05 08:51:22;;;;;;;1.90;1.47;;;21.30;99.90;;;;;;2035323;69;21062;-83
2021/08/05 08:53:48;;;;;;;1.70;1.60;;;21.40;99.90;;;;;;2034914;70;21067;-83
2021/08/05 08:56:14;;;;;;;4.22;1.50;;;21.10;99.90;;;;;;2034990;70;21120;-82
2021/08/05 08:58:40;;;;;;;1.40;1.30;;;21.00;99.90;;;;;;2034983;69;21131;-84
2021/08/05 09:01:06;;;;;;;1.40;1.30;;;21.30;99.90;;;;;;2035430;70;21035;-83
2021/08/05 09:03:32;;;;;;;1.37;1.27;;;21.50;99.90;;;;;;2035233;70;21043;-84
2021/08/05 09:05:59;;;;;;;3.92;1.90;;;21.50;99.90;;;;;;2035100;69;21116;-78
2021/08/05 09:08:25;;;;;;;1.52;1.25;;;21.50;99.90;;;;;;2034859;70;21079;-82
2021/08/05 09:10:51;;;;;;;1.42;1.32;;;21.50;99.90;;;;;;2034772;70;21035;-83
2021/08/05 09:13:17;;;;;;;1.35;1.25;;;21.40;99.90;;;;;;2034748;70;21068;-82
2021/08/05 09:15:45;;;;;;;2.52;1.52;;;21.20;99.90;;;;;;2034763;69;21095;-83
2021/08/05 09:18:11;;;;;;;1.52;1.42;;;21.10;99.90;;;;;;2034774;70;21142;-82
2021/08/05 09:20:37;;;;;;;3.08;1.30;;;21.00;99.90;;;;;;2034861;70;21064;-81
2021/08/05 09:23:03;;;;;;;3.02;1.10;;;21.20;99.90;;;;;;2035222;70;21072;-86
2021/08/05 09:25:30;;;;;;;2.40;1.30;;;21.70;99.90;;;;;;2035121;70;21067;-84
2021/08/05 09:27:56;;;;;;;1.30;1.20;;;22.00;99.90;;;;;;2035360;70;21167;-83
2021/08/05 09:30:22;;;;;;;1.95;1.35;;;22.70;99.90;;;;;;2035374;69;21488;-84
2021/08/05 09:32:48;;;;;;;1.75;1.42;;;23.70;99.90;;;;;;2035526;70;21451;-82
2021/08/05 09:35:14;;;;;;;1.95;1.10;;;24.40;99.90;;;;;;2035505;70;21605;-83
2021/08/05 09:37:40;;;;;;;1.50;1.12;;;23.70;99.90;;;;;;2035677;70;21423;-86
2021/08/05 09:40:06;;;;;;;3.08;1.25;;;23.90;99.90;;;;;;2035572;70;21464;-84
2021/08/05 09:42:32;;;;;;;1.77;1.22;;;24.30;99.90;;;;;;2035871;69;21047;-89
2021/08/05 09:45:00;;;;;;;1.40;1.30;;;24.30;99.90;;;;;;2036065;70;21067;-85
2021/08/05 09:47:27;;;;;;;5.20;1.20;;;24.30;99.90;;;;;;2035963;69;21152;-88
2021/08/05 09:49:54;;;;;;;2.27;1.37;;;23.90;99.90;;;;;;2036075;70;21060;-87
2021/08/05 09:52:20;;;;;;;2.30;1.35;;;23.70;99.90;;;;;;2035805;69;21404;-86
2021/08/05 09:54:51;;;;;;;1.85;1.17;;;23.90;99.90;;;;;;2035957;70;21440;-85
2021/08/05 09:57:14;;;;;;;1.22;1.02;;;24.40;99.90;;;;;;2033404;70;21079;-85
2021/08/05 09:59:40;;;;;;;0.95;0.90;;;24.10;99.90;;;;;;2035929;70;21043;-85
2021/08/05 10:02:06;;;;;;;3.52;1.00;;;24.70;99.90;;;;;;2036065;70;21052;-82
2021/08/05 10:04:32;;;;;;;1.57;1.12;;;25.10;99.90;;;;;;2036439;70;21080;-85
2021/08/05 10:06:58;;;;;;;3.58;1.10;;;25.90;99.90;;;;;;2035689;70;21134;-85
2021/08/05 10:09:24;;;;;;;1.67;1.02;;;25.90;99.90;;;;;;2035718;69;21043;-86
2021/08/05 10:11:50;;;;;;;1.15;0.90;;;25.10;99.90;;;;;;2035694;70;21075;-88
2021/08/05 10:14:17;;;;;;;2.08;1.12;;;25.00;99.90;;;;;;2035950;70;21044;-89
2021/08/05 10:16:43;;;;;;;3.80;2.42;;;24.80;99.90;;;;;;2035918;70;21075;-86
2021/08/05 10:19:09;;;;;;;1.27;1.10;;;24.00;99.90;;;;;;2035607;70;21048;-87
2021/08/05 10:21:37;;;;;;;1.00;0.80;;;23.80;99.90;;;;;;2035971;70;21066;-85
2021/08/05 10:24:03;;;;;;;0.90;0.70;;;23.50;99.90;;;;;;2036581;70;21480;-85
2021/08/05 10:26:29;;;;;;;3.90;0.95;;;23.40;99.90;;;;;;2037373;69;21051;-84
2021/08/05 10:28:55;;;;;;;6.45;1.05;;;23.30;99.90;;;;;;2036140;69;21075;-85
2021/08/05 10:31:21;;;;;;;1.10;1.00;;;23.30;99.90;;;;;;2036243;70;21111;-86
2021/08/05 10:33:47;;;;;;;2.35;0.90;;;23.70;99.90;;;;;;2036087;70;21127;-85
2021/08/05 10:36:13;;;;;;;3.17;0.80;;;24.70;99.90;;;;;;2035800;70;21068;-85
2021/08/05 10:38:41;;;;;;;0.95;0.78;;;25.20;99.90;;;;;;2028515;70;21043;-85
2021/08/05 10:41:07;;;;;;;1.42;0.80;;;25.10;99.90;;;;;;1993697;71;21482;-85
2021/08/05 10:43:35;;;;;;;0.70;0.70;;;24.40;99.90;;;;;;2035656;70;21063;-88
2021/08/05 10:46:01;;;;;;;0.88;0.80;;;24.40;99.90;;;;;;2037296;69;21064;-87
2021/08/05 10:48:27;;;;;;;1.12;1.00;;;23.90;99.90;;;;;;2036435;70;21071;-84
2021/08/05 10:50:55;;;;;;;1.05;0.75;;;23.60;99.90;;;;;;2026236;69;21169;-86
2021/08/05 10:53:21;;;;;;;1.10;1.00;;;24.00;99.90;;;;;;2021289;70;21084;-88
2021/08/05 10:55:47;;;;;;;1.15;0.70;;;24.70;99.90;;;;;;2036189;69;21435;-86
2021/08/05 10:58:13;;;;;;;0.80;0.68;;;24.40;99.90;;;;;;2036786;70;21066;-88
2021/08/05 11:00:39;;;;;;;0.70;0.60;;;25.10;99.90;;;;;;2036097;70;21028;-89
2021/08/05 11:03:06;;;;;;;0.68;0.60;;;25.70;99.90;;;;;;2036310;70;21067;-90
2021/08/05 11:05:32;;;;;;;1.32;1.02;;;26.00;99.90;;;;;;2017907;70;21147;-88
2021/08/05 11:07:58;;;;;;;1.40;0.70;;;26.10;99.90;;;;;;2019859;70;21064;-87
2021/08/05 11:10:25;;;;;;;1.70;0.90;;;25.90;99.90;;;;;;2033189;70;21031;-79
2021/08/05 11:12:51;;;;;;;0.78;0.70;;;25.90;99.90;;;;;;2036044;69;21092;-86
2021/08/05 11:15:17;;;;;;;1.50;0.70;;;26.10;99.90;;;;;;2036011;70;21058;-89
2021/08/05 11:17:43;;;;;;;1.55;0.88;;;26.50;99.90;;;;;;2036215;70;21026;-87
2021/08/05 11:20:09;;;;;;;1.52;0.78;;;25.90;99.90;;;;;;2035779;69;21050;-86
2021/08/05 11:22:35;;;;;;;1.05;0.70;;;25.20;99.90;;;;;;2036107;70;21436;-86
2021/08/05 11:25:01;;;;;;;6.33;0.80;;;24.80;99.90;;;;;;2037186;69;21172;-87
2021/08/05 11:27:27;;;;;;;0.78;0.78;;;24.20;99.90;;;;;;2037704;69;21075;-87
2021/08/05 11:29:54;;;;;;;1.75;1.07;;;24.40;99.90;;;;;;2036788;69;21385;-87
2021/08/05 11:32:20;;;;;;;1.80;0.93;;;24.70;99.90;;;;;;2036057;70;21019;-87
2021/08/05 11:34:46;;;;;;;1.05;0.75;;;25.30;99.90;;;;;;2035994;70;21042;-89
2021/08/05 11:37:12;;;;;;;0.95;0.90;;;25.30;99.90;;;;;;2036031;70;21079;-88
2021/08/05 11:39:38;;;;;;;1.12;0.70;;;24.50;99.90;;;;;;2036259;69;21095;-89
2021/08/05 11:42:04;;;;;;;3.00;0.90;;;24.60;99.90;;;;;;2036053;70;21054;-89
2021/08/05 11:44:30;;;;;;;1.35;0.62;;;24.90;99.90;;;;;;2036187;69;21153;-87
2021/08/05 11:46:56;;;;;;;0.70;0.70;;;24.80;99.90;;;;;;2036131;69;21120;-88
2021/08/05 11:49:23;;;;;;;1.75;0.80;;;25.00;99.90;;;;;;2036082;69;21071;-87
2021/08/05 11:51:49;;;;;;;5.58;0.60;;;25.00;99.90;;;;;;2036231;70;21032;-86
2021/08/05 11:54:15;;;;;;;2.70;0.80;;;25.20;99.90;;;;;;1996156;70;21099;-88
2021/08/05 11:56:41;;;;;;;0.88;0.53;;;25.50;99.90;;;;;;2036275;70;21059;-89
2021/08/05 11:59:07;;;;;;;1.37;0.50;;;25.60;99.90;;;;;;2036202;70;21149;-87
2021/08/05 12:01:33;;;;;;;1.02;0.70;;;25.70;99.90;;;;;;2036081;70;21071;-85
2021/08/05 12:04:03;;;;;;;0.88;0.70;;;26.30;99.90;;;;;;2035904;69;21107;-85
2021/08/05 12:06:27;;;;;;;0.55;0.55;;;26.50;99.90;;;;;;2035176;70;21071;-89
2021/08/05 12:08:53;;;;;;;4.05;0.72;;;26.30;99.90;;;;;;2036515;70;21055;-84
2021/08/05 12:11:19;;;;;;;0.88;0.70;;;26.10;99.90;;;;;;2035034;70;21019;-84
2021/08/05 12:13:46;;;;;;;3.60;0.70;;;25.50;99.90;;;;;;2035365;70;21046;-86
2021/08/05 12:16:12;;;;;;;0.62;0.62;;;25.30;99.90;;;;;;2035200;70;21105;-83
2021/08/05 12:18:38;;;;;;;1.00;0.57;;;25.30;99.90;;;;;;2034804;70;21058;-83
2021/08/05 12:21:06;;;;;;;0.80;0.70;;;25.80;99.90;;;;;;2034807;70;21068;-82
2021/08/05 12:23:38;;;;;;;1.32;0.60;;;25.90;99.90;;;;;;2034888;70;21511;-84
2021/08/05 12:26:05;;;;;;;1.92;0.70;;;26.50;99.90;;;;;;2034145;70;21526;-81
2021/08/05 12:28:31;;;;;;;0.70;0.68;;;26.90;99.90;;;;;;2034273;70;21082;-82
2021/08/05 12:30:57;;;;;;;6.42;0.75;;;27.10;99.90;;;;;;2035051;70;21047;-83
2021/08/05 12:33:23;;;;;;;2.02;0.80;;;27.10;99.90;;;;;;2035014;70;21103;-82
2021/08/05 12:35:49;;;;;;;2.08;0.62;;;27.20;99.90;;;;;;2034730;70;21112;-82
2021/08/05 12:38:15;;;;;;;1.45;0.70;;;27.20;99.90;;;;;;2034289;70;21079;-82